createdAt,value
2023-04-26T00:01:27.864Z,8.90
2023-04-26T00:03:57.805Z,8.90
2023-04-26T00:06:28.688Z,8.90
2023-04-26T00:08:57.875Z,8.80
2023-04-26T00:11:27.278Z,8.80
2023-04-26T00:13:56.852Z,8.80
2023-04-26T00:16:26.368Z,8.70
2023-04-26T00:18:56.786Z,8.70
2023-04-26T00:21:27.403Z,8.70
2023-04-26T00:23:56.782Z,8.80
2023-04-26T00:26:26.192Z,8.80
2023-04-26T00:28:55.394Z,8.70
2023-04-26T00:31:24.851Z,8.60
2023-04-26T00:33:54.355Z,8.50
2023-04-26T00:36:23.862Z,8.30
2023-04-26T00:38:54.872Z,8.30
2023-04-26T00:41:24.586Z,8.20
2023-04-26T00:43:54.097Z,8.10
2023-04-26T00:46:24.098Z,8.00
2023-04-26T00:48:54.136Z,7.90
2023-04-26T00:51:23.781Z,7.90
2023-04-26T00:53:55.152Z,7.90
2023-04-26T00:56:26.633Z,7.90
2023-04-26T00:58:55.899Z,7.80
2023-04-26T01:01:25.200Z,7.80
2023-04-26T01:03:54.722Z,7.70
2023-04-26T01:06:24.693Z,7.80
2023-04-26T01:08:58.852Z,7.80
2023-04-26T01:11:28.293Z,7.80
2023-04-26T01:14:00.171Z,7.70
2023-04-26T01:16:30.389Z,7.60
2023-04-26T01:18:59.715Z,7.60
2023-04-26T01:21:29.213Z,7.60
2023-04-26T01:23:59.863Z,7.70
2023-04-26T01:26:29.170Z,7.90
2023-04-26T01:28:58.481Z,7.80
2023-04-26T01:31:27.977Z,7.70
2023-04-26T01:33:57.650Z,7.80
2023-04-26T01:36:27.314Z,7.90
2023-04-26T01:38:56.810Z,8.00
2023-04-26T01:41:27.520Z,8.00
2023-04-26T01:43:56.974Z,8.10
2023-04-26T01:46:28.911Z,8.00
2023-04-26T01:48:58.666Z,8.00
2023-04-26T01:51:28.165Z,8.00
2023-04-26T01:53:57.406Z,7.90
2023-04-26T01:56:28.986Z,8.00
2023-04-26T01:58:59.433Z,8.00
2023-04-26T02:01:28.850Z,7.90
2023-04-26T02:03:58.353Z,7.90
2023-04-26T02:06:28.267Z,7.80
2023-04-26T02:08:58.303Z,7.80
2023-04-26T02:11:29.084Z,7.70
2023-04-26T02:13:58.330Z,7.70
2023-04-26T02:16:27.723Z,7.80
2023-04-26T02:18:56.938Z,7.80
2023-04-26T02:21:27.288Z,7.80
2023-04-26T02:23:56.586Z,7.90
2023-04-26T02:26:27.976Z,7.80
2023-04-26T02:28:57.380Z,7.90
2023-04-26T02:31:28.229Z,7.90
2023-04-26T02:33:57.562Z,7.90
2023-04-26T02:36:27.598Z,7.90
2023-04-26T02:38:57.833Z,8.00
2023-04-26T02:41:28.617Z,8.10
2023-04-26T02:43:58.481Z,8.10
2023-04-26T02:46:28.158Z,8.10
2023-04-26T02:48:57.442Z,8.10
2023-04-26T02:51:27.387Z,8.10
2023-04-26T02:53:56.710Z,8.10
2023-04-26T02:56:28.455Z,8.10
2023-04-26T02:58:57.875Z,8.20
2023-04-26T03:01:27.263Z,8.30
2023-04-26T03:03:59.774Z,8.30
2023-04-26T03:06:30.158Z,8.20
2023-04-26T03:08:59.478Z,8.20
2023-04-26T03:11:30.332Z,8.20
2023-04-26T03:13:59.694Z,8.20
2023-04-26T03:16:30.059Z,8.20
2023-04-26T03:18:59.347Z,8.20
2023-04-26T03:21:28.716Z,8.20
2023-04-26T03:23:58.216Z,8.20
2023-04-26T03:26:27.603Z,8.20
2023-04-26T03:28:58.402Z,8.20
2023-04-26T03:31:27.862Z,8.00
2023-04-26T03:33:57.358Z,8.00
2023-04-26T03:36:29.078Z,7.90
2023-04-26T03:39:00.016Z,8.00
2023-04-26T03:41:31.029Z,8.00
2023-04-26T03:44:06.916Z,7.90
2023-04-26T03:46:36.959Z,7.80
2023-04-26T03:49:06.437Z,7.80
2023-04-26T03:51:35.919Z,7.70
2023-04-26T03:54:05.600Z,7.70
2023-04-26T03:56:35.171Z,7.80
2023-04-26T03:59:05.881Z,7.70
2023-04-26T04:01:35.240Z,7.60
2023-04-26T04:04:04.785Z,7.60
2023-04-26T04:06:34.418Z,7.60
2023-04-26T04:09:04.766Z,7.60
2023-04-26T04:11:34.938Z,7.70
2023-04-26T04:14:05.973Z,7.70
2023-04-26T04:16:35.739Z,7.80
2023-04-26T04:19:05.490Z,7.90
2023-04-26T04:21:35.261Z,8.20
2023-04-26T04:24:05.954Z,8.60
2023-04-26T04:26:35.740Z,9.40
2023-04-26T04:29:10.056Z,10.50
2023-04-26T04:31:42.101Z,11.80
2023-04-26T04:34:12.104Z,12.80
2023-04-26T04:36:43.771Z,13.70
2023-04-26T04:39:16.373Z,14.80
2023-04-26T04:41:48.490Z,15.90
2023-04-26T04:44:21.038Z,16.80
2023-04-26T04:46:50.325Z,17.50
2023-04-26T04:49:20.096Z,17.80
2023-04-26T04:51:50.029Z,17.80
2023-04-26T04:54:20.689Z,17.90
2023-04-26T04:56:50.385Z,17.50
2023-04-26T04:59:21.788Z,17.70
2023-04-26T05:01:51.441Z,18.20
2023-04-26T05:04:21.588Z,18.90
2023-04-26T05:06:51.422Z,19.20
2023-04-26T05:09:21.248Z,19.50
2023-04-26T05:11:50.549Z,19.50
2023-04-26T05:14:21.263Z,19.60
2023-04-26T05:16:50.692Z,20.00
2023-04-26T05:19:19.874Z,20.70
2023-04-26T05:21:49.169Z,20.70
2023-04-26T05:24:19.552Z,20.70
2023-04-26T05:26:49.372Z,21.60
2023-04-26T05:29:32.599Z,22.00
2023-04-26T05:32:11.736Z,22.40
2023-04-26T05:35:16.601Z,22.50
2023-04-26T05:37:46.155Z,21.20
2023-04-26T05:40:16.899Z,20.70
2023-04-26T05:42:47.260Z,20.80
2023-04-26T05:45:18.055Z,20.40
2023-04-26T05:47:48.588Z,19.50
2023-04-26T05:50:18.049Z,18.90
2023-04-26T05:52:47.407Z,18.90
2023-04-26T05:55:16.733Z,19.10
2023-04-26T05:57:45.962Z,19.50
2023-04-26T06:00:20.370Z,20.30
2023-04-26T06:02:50.547Z,20.70
2023-04-26T06:05:20.897Z,20.50
2023-04-26T06:07:50.279Z,20.50
2023-04-26T06:10:20.273Z,19.80
2023-04-26T06:12:49.635Z,19.70
2023-04-26T06:15:21.923Z,19.80
2023-04-26T06:17:59.079Z,19.20
2023-04-26T06:20:28.701Z,19.00
2023-04-26T06:22:58.215Z,19.50
2023-04-26T06:25:27.455Z,19.90
2023-04-26T06:27:56.865Z,20.50
2023-04-26T06:30:27.792Z,20.60
2023-04-26T06:32:59.308Z,20.90
2023-04-26T06:35:34.721Z,21.30
2023-04-26T06:38:04.938Z,21.40
2023-04-26T06:40:34.097Z,21.50
2023-04-26T06:43:04.050Z,21.70
2023-04-26T06:45:44.173Z,21.50
2023-04-26T06:48:14.452Z,20.70
2023-04-26T06:50:43.921Z,20.40
2023-04-26T06:53:13.354Z,20.20
2023-04-26T06:55:42.678Z,20.10
2023-04-26T06:58:12.330Z,20.00
2023-04-26T07:00:41.689Z,20.10
2023-04-26T07:03:12.595Z,19.90
2023-04-26T07:05:42.044Z,20.20
2023-04-26T07:08:12.112Z,20.40
2023-04-26T07:10:41.755Z,20.70
2023-04-26T07:13:11.109Z,20.30
2023-04-26T07:15:40.457Z,20.10
2023-04-26T07:18:10.202Z,19.90
2023-04-26T07:20:41.001Z,20.00
2023-04-26T07:23:10.442Z,20.00
2023-04-26T07:25:39.891Z,20.20
2023-04-26T07:28:09.507Z,20.10
2023-04-26T07:30:38.908Z,20.00
2023-04-26T07:33:13.475Z,20.10
2023-04-26T07:35:45.138Z,19.90
2023-04-26T07:38:19.860Z,19.50
2023-04-26T07:40:49.418Z,19.20
2023-04-26T07:43:19.007Z,19.30
2023-04-26T07:45:48.508Z,19.70
2023-04-26T07:48:18.554Z,19.90
2023-04-26T07:50:49.672Z,19.60
2023-04-26T07:53:18.971Z,19.10
2023-04-26T07:55:48.325Z,18.80
2023-04-26T07:58:18.040Z,18.40
2023-04-26T08:00:47.337Z,18.00
2023-04-26T08:03:18.342Z,17.30
2023-04-26T08:05:49.995Z,17.00
2023-04-26T08:08:19.470Z,16.70
2023-04-26T08:10:48.788Z,16.20
2023-04-26T08:13:18.155Z,16.20
2023-04-26T08:15:49.351Z,16.40
2023-04-26T08:18:18.570Z,16.10
2023-04-26T08:20:49.510Z,16.00
2023-04-26T08:23:19.885Z,15.90
2023-04-26T08:25:49.979Z,15.60
2023-04-26T08:28:19.455Z,15.30
2023-04-26T08:30:49.367Z,14.90
2023-04-26T08:33:20.415Z,14.50
2023-04-26T08:35:51.222Z,14.30
2023-04-26T08:38:22.858Z,14.60
2023-04-26T08:40:53.730Z,14.80
2023-04-26T08:43:23.475Z,14.80
2023-04-26T08:45:53.184Z,14.50
2023-04-26T08:48:22.763Z,14.30
2023-04-26T08:50:55.525Z,14.20
2023-04-26T08:53:26.237Z,14.00
2023-04-26T08:55:56.447Z,13.70
2023-04-26T08:58:26.050Z,13.70
2023-04-26T09:00:55.772Z,13.50
2023-04-26T09:03:26.713Z,13.30
2023-04-26T09:05:58.027Z,13.30
2023-04-26T09:08:28.518Z,13.20
2023-04-26T09:10:57.853Z,13.00
2023-04-26T09:13:30.872Z,12.80
2023-04-26T09:16:01.830Z,12.80
2023-04-26T09:18:34.209Z,12.40
2023-04-26T09:21:07.334Z,12.10
2023-04-26T09:23:36.898Z,11.80
2023-04-26T09:26:21.187Z,11.80
2023-04-26T09:28:51.270Z,11.90
2023-04-26T09:31:39.738Z,11.90
2023-04-26T09:34:10.169Z,11.80
2023-04-26T09:36:52.172Z,11.60
2023-04-26T09:39:35.781Z,11.50
2023-04-26T09:42:05.908Z,11.30
2023-04-26T09:44:35.652Z,11.20
2023-04-26T09:47:07.044Z,11.20
2023-04-26T09:49:46.990Z,11.20
2023-04-26T09:52:18.744Z,11.10
2023-04-26T09:54:50.179Z,11.20
2023-04-26T09:57:22.489Z,11.30
2023-04-26T09:59:55.345Z,11.40
2023-04-26T10:02:27.497Z,11.50
2023-04-26T10:05:00.541Z,11.40
2023-04-26T10:07:32.231Z,11.40
2023-04-26T10:10:01.627Z,11.30
2023-04-26T10:12:31.023Z,11.30
2023-04-26T10:15:00.453Z,11.30
2023-04-26T10:17:29.837Z,11.40
2023-04-26T10:20:01.756Z,11.50
2023-04-26T10:22:36.989Z,11.80
2023-04-26T10:25:09.519Z,12.10
2023-04-26T10:27:54.645Z,12.10
2023-04-26T10:30:24.770Z,12.30
2023-04-26T10:33:18.065Z,12.30
2023-04-26T10:36:07.104Z,12.20
2023-04-26T10:38:39.484Z,12.10
2023-04-26T10:41:35.105Z,12.10
2023-04-26T10:44:37.957Z,12.30
2023-04-26T10:47:08.768Z,12.40
2023-04-26T10:49:48.720Z,12.40
2023-04-26T10:52:20.630Z,12.20
2023-04-26T10:54:56.768Z,12.20
2023-04-26T10:57:42.158Z,12.20
2023-04-26T11:00:32.829Z,12.20
2023-04-26T11:03:09.118Z,12.20
2023-04-26T11:05:42.306Z,12.40
2023-04-26T11:08:18.625Z,12.40
2023-04-26T11:10:54.388Z,12.20
2023-04-26T11:13:23.832Z,12.40
2023-04-26T11:16:03.148Z,12.50
2023-04-26T11:18:32.752Z,12.90
2023-04-26T11:21:02.347Z,13.10
2023-04-26T11:23:32.906Z,13.00
2023-04-26T11:26:05.608Z,12.80
2023-04-26T11:28:36.238Z,12.70
2023-04-26T11:31:06.619Z,12.20
2023-04-26T11:33:35.874Z,11.90
2023-04-26T11:36:06.053Z,11.50
2023-04-26T11:38:35.577Z,11.20
2023-04-26T11:41:06.851Z,11.10
2023-04-26T11:43:40.294Z,11.10
2023-04-26T11:46:10.553Z,11.30
2023-04-26T11:48:41.168Z,11.50
2023-04-26T11:51:12.222Z,11.80
2023-04-26T11:53:43.199Z,11.90
2023-04-26T11:56:18.322Z,12.20
2023-04-26T11:58:49.800Z,12.50
2023-04-26T12:01:23.872Z,12.70
2023-04-26T12:03:54.624Z,12.50
2023-04-26T12:06:30.879Z,12.40
2023-04-26T12:09:02.973Z,12.30
2023-04-26T12:11:33.649Z,12.20
2023-04-26T12:14:03.840Z,11.90
2023-04-26T12:16:33.662Z,11.80
2023-04-26T12:19:07.921Z,11.70
2023-04-26T12:21:43.042Z,11.50
2023-04-26T12:24:27.681Z,11.50
2023-04-26T12:27:00.312Z,11.60
2023-04-26T12:29:32.215Z,11.70
2023-04-26T12:32:02.349Z,12.00
2023-04-26T12:34:31.990Z,12.00
2023-04-26T12:37:01.561Z,12.20
2023-04-26T12:39:31.355Z,12.30
2023-04-26T12:42:02.313Z,12.30
2023-04-26T12:44:31.808Z,12.30
2023-04-26T12:47:11.807Z,12.30
2023-04-26T12:49:59.781Z,12.10
2023-04-26T12:55:36.694Z,12.00
2023-04-26T12:58:07.448Z,12.00
2023-04-26T13:00:36.779Z,12.00
2023-04-26T13:03:06.619Z,12.00
2023-04-26T13:05:36.141Z,12.10
2023-04-26T13:08:05.966Z,12.00
2023-04-26T13:10:35.492Z,12.00
2023-04-26T13:13:06.535Z,11.90
2023-04-26T13:15:36.194Z,11.90
2023-04-26T13:18:06.381Z,12.00
2023-04-26T13:20:36.467Z,12.00
2023-04-26T13:23:05.868Z,11.80
2023-04-26T13:25:35.201Z,11.70
2023-04-26T13:28:04.763Z,11.60
2023-04-26T13:30:35.559Z,11.60
2023-04-26T13:33:05.162Z,11.50
2023-04-26T13:35:34.718Z,11.40
2023-04-26T13:38:04.365Z,11.50
2023-04-26T13:40:33.867Z,11.60
2023-04-26T13:43:03.434Z,11.80
2023-04-26T13:45:36.950Z,11.80
2023-04-26T13:48:08.306Z,11.80
2023-04-26T13:50:38.022Z,11.90
2023-04-26T13:53:07.700Z,11.90
2023-04-26T13:55:37.302Z,11.80
2023-04-26T13:58:06.842Z,11.70
2023-04-26T14:00:36.304Z,11.80
2023-04-26T14:03:07.624Z,11.70
2023-04-26T14:05:37.284Z,11.70
2023-04-26T14:08:06.682Z,11.70
2023-04-26T14:10:36.135Z,11.90
2023-04-26T14:13:05.730Z,11.90
2023-04-26T14:15:35.011Z,11.90
2023-04-26T14:18:04.425Z,11.90
2023-04-26T14:20:35.206Z,11.80
2023-04-26T14:23:04.399Z,11.70
2023-04-26T14:25:34.296Z,11.80
2023-04-26T14:28:04.424Z,11.90
2023-04-26T14:30:33.640Z,11.80
2023-04-26T14:33:03.268Z,11.70
2023-04-26T14:35:32.602Z,11.70
2023-04-26T14:38:03.408Z,11.70
2023-04-26T14:40:32.718Z,11.60
2023-04-26T14:43:02.809Z,11.60
2023-04-26T14:45:44.064Z,11.60
2023-04-26T14:48:14.416Z,11.50
2023-04-26T14:50:43.934Z,11.40
2023-04-26T14:53:14.542Z,11.30
2023-04-26T14:55:43.783Z,11.30
2023-04-26T14:58:13.090Z,11.30
2023-04-26T15:00:43.398Z,11.30
2023-04-26T15:03:12.909Z,11.30
2023-04-26T15:05:42.599Z,11.30
2023-04-26T15:08:11.984Z,11.40
2023-04-26T15:10:42.683Z,11.30
2023-04-26T15:13:12.459Z,11.30
2023-04-26T15:15:42.088Z,11.30
2023-04-26T15:18:11.535Z,11.20
2023-04-26T15:20:41.969Z,11.10
2023-04-26T15:23:11.330Z,11.10
2023-04-26T15:25:42.599Z,11.10
2023-04-26T15:28:11.919Z,11.10
2023-04-26T15:30:41.421Z,11.10
2023-04-26T15:33:13.115Z,11.20
2023-04-26T15:35:42.721Z,11.20
2023-04-26T15:38:12.072Z,11.00
2023-04-26T15:40:43.456Z,11.10
2023-04-26T15:43:13.039Z,11.00
2023-04-26T15:45:42.460Z,10.90
2023-04-26T15:48:13.716Z,10.80
2023-04-26T15:50:43.423Z,10.80
2023-04-26T15:53:12.877Z,10.70
2023-04-26T15:55:43.808Z,10.70
2023-04-26T15:58:13.522Z,10.60
2023-04-26T16:00:42.920Z,10.60
2023-04-26T16:03:12.166Z,10.60
2023-04-26T16:05:41.648Z,10.50
2023-04-26T16:08:10.830Z,10.50
2023-04-26T16:10:40.393Z,10.40
2023-04-26T16:13:11.216Z,10.40
2023-04-26T16:15:40.469Z,10.40
2023-04-26T16:18:10.173Z,10.40
2023-04-26T16:20:39.652Z,10.30
2023-04-26T16:23:08.985Z,10.30
2023-04-26T16:25:38.979Z,10.30
2023-04-26T16:28:10.087Z,10.20
2023-04-26T16:30:42.680Z,10.20
2023-04-26T16:33:12.070Z,10.20
2023-04-26T16:35:41.420Z,10.30
2023-04-26T16:38:10.910Z,10.30
2023-04-26T16:40:40.225Z,10.30
2023-04-26T16:43:12.688Z,10.40
2023-04-26T16:45:43.598Z,10.40
2023-04-26T16:48:13.203Z,10.50
2023-04-26T16:50:42.734Z,10.50
2023-04-26T16:53:14.191Z,10.50
2023-04-26T16:55:43.982Z,10.40
2023-04-26T16:58:13.462Z,10.30
2023-04-26T17:00:51.713Z,10.30
2023-04-26T17:03:21.960Z,10.40
2023-04-26T17:06:00.516Z,10.30
2023-04-26T17:08:35.206Z,10.30
2023-04-26T17:11:06.007Z,10.30
2023-04-26T17:13:35.374Z,10.20
2023-04-26T17:16:06.797Z,10.20
2023-04-26T17:18:36.774Z,10.00
2023-04-26T17:21:07.313Z,10.10
2023-04-26T17:23:36.779Z,10.10
2023-04-26T17:26:06.755Z,10.10
2023-04-26T17:28:40.097Z,10.10
2023-04-26T17:31:14.095Z,10.10
2023-04-26T17:33:44.210Z,10.10
2023-04-26T17:36:14.444Z,10.10
2023-04-26T17:38:44.832Z,10.10
2023-04-26T17:41:14.834Z,10.10
2023-04-26T17:43:44.840Z,10.00
2023-04-26T17:46:15.850Z,10.00
2023-04-26T17:48:46.060Z,9.90
2023-04-26T17:51:16.006Z,9.90
2023-04-26T17:53:46.054Z,9.90
2023-04-26T17:56:16.503Z,9.90
2023-04-26T17:58:46.230Z,9.80
2023-04-26T18:01:17.777Z,9.80
2023-04-26T18:03:47.620Z,9.60
2023-04-26T18:06:18.490Z,9.60
2023-04-26T18:08:49.565Z,9.60
2023-04-26T18:11:21.081Z,9.50
2023-04-26T18:13:51.321Z,9.50
2023-04-26T18:16:22.406Z,9.60
2023-04-26T18:18:52.219Z,9.60
2023-04-26T18:21:22.182Z,9.50
2023-04-26T18:23:52.574Z,9.50
2023-04-26T18:26:23.407Z,9.50
2023-04-26T18:28:53.340Z,9.60
2023-04-26T18:31:24.591Z,9.60
2023-04-26T18:33:54.170Z,9.50
2023-04-26T18:36:23.735Z,9.50
2023-04-26T18:38:52.992Z,9.50
2023-04-26T18:41:24.432Z,9.50
2023-04-26T18:43:55.169Z,9.40
2023-04-26T18:46:27.441Z,9.40
2023-04-26T18:48:58.031Z,9.40
2023-04-26T18:51:29.008Z,9.40
2023-04-26T18:53:59.518Z,9.30
2023-04-26T18:56:30.767Z,9.40
2023-04-26T18:59:01.052Z,9.30
2023-04-26T19:01:34.606Z,9.30
2023-04-26T19:04:05.552Z,9.30
2023-04-26T19:06:35.765Z,9.30
2023-04-26T19:09:12.681Z,9.30
2023-04-26T19:11:46.623Z,9.30
2023-04-26T19:14:17.514Z,9.30
2023-04-26T19:16:49.606Z,9.30
2023-04-26T19:19:19.940Z,9.20
2023-04-26T19:21:52.653Z,9.10
2023-04-26T19:24:22.987Z,9.10
2023-04-26T19:26:53.919Z,9.10
2023-04-26T19:29:25.408Z,9.10
2023-04-26T19:32:00.871Z,9.00
2023-04-26T19:34:33.046Z,9.00
2023-04-26T19:37:04.323Z,8.90
2023-04-26T19:39:35.242Z,8.90
2023-04-26T19:42:06.053Z,8.80
2023-04-26T19:44:36.938Z,8.80
2023-04-26T19:47:10.524Z,8.80
2023-04-26T19:49:40.895Z,8.70
2023-04-26T19:52:12.277Z,8.60
2023-04-26T19:54:44.650Z,8.60
2023-04-26T19:57:16.273Z,8.60
2023-04-26T19:59:46.904Z,8.60
2023-04-26T20:02:18.814Z,8.50
2023-04-26T20:04:49.421Z,8.50
2023-04-26T20:07:19.340Z,8.40
2023-04-26T20:09:49.653Z,8.40
2023-04-26T20:12:21.203Z,8.40
2023-04-26T20:14:51.705Z,8.40
2023-04-26T20:17:23.569Z,8.40
2023-04-26T20:19:53.494Z,8.40
2023-04-26T20:22:23.528Z,8.30
2023-04-26T20:24:54.334Z,8.30
2023-04-26T20:27:26.933Z,8.20
2023-04-26T20:29:56.902Z,8.20
2023-04-26T20:32:28.676Z,8.10
2023-04-26T20:34:59.570Z,8.00
2023-04-26T20:37:29.490Z,8.00
2023-04-26T20:39:59.303Z,7.90
2023-04-26T20:42:29.055Z,7.80
2023-04-26T20:44:59.874Z,7.80
2023-04-26T20:47:34.520Z,7.70
2023-04-26T20:50:04.152Z,7.70
2023-04-26T20:52:33.430Z,7.70
2023-04-26T20:55:03.546Z,7.70
2023-04-26T20:57:33.465Z,7.70
2023-04-26T21:00:03.150Z,7.70
2023-04-26T21:02:34.532Z,7.60
2023-04-26T21:05:04.690Z,7.60
2023-04-26T21:07:34.336Z,7.60
2023-04-26T21:10:04.231Z,7.50
2023-04-26T21:12:34.511Z,7.50
2023-04-26T21:15:04.240Z,7.40
2023-04-26T21:17:35.572Z,7.40
2023-04-26T21:20:05.500Z,7.40
2023-04-26T21:22:34.775Z,7.30
2023-04-26T21:25:04.708Z,7.40
2023-04-26T21:27:34.044Z,7.30
2023-04-26T21:30:03.326Z,7.30
2023-04-26T21:32:34.017Z,7.30
2023-04-26T21:35:03.149Z,7.20
2023-04-26T21:37:32.529Z,7.20
2023-04-26T21:40:01.748Z,7.20
2023-04-26T21:42:30.953Z,7.20
2023-04-26T21:45:00.230Z,7.20
2023-04-26T21:47:29.359Z,7.10
2023-04-26T21:50:00.200Z,7.00
2023-04-26T21:52:29.429Z,7.00
2023-04-26T21:54:59.614Z,7.00
2023-04-26T21:57:29.688Z,7.00
2023-04-26T21:59:59.613Z,7.00
2023-04-26T22:02:29.252Z,6.90
2023-04-26T22:04:59.945Z,6.90
2023-04-26T22:07:29.116Z,6.80
2023-04-26T22:09:58.622Z,6.80
2023-04-26T22:12:27.878Z,6.70
2023-04-26T22:14:57.139Z,6.70
2023-04-26T22:17:26.761Z,6.70
2023-04-26T22:19:56.134Z,6.70
2023-04-26T22:22:26.900Z,6.70
2023-04-26T22:24:56.128Z,6.70
2023-04-26T22:27:25.307Z,6.70
2023-04-26T22:29:54.523Z,6.60
2023-04-26T22:32:23.859Z,6.60
2023-04-26T22:34:53.002Z,6.60
2023-04-26T22:37:23.083Z,6.50
2023-04-26T22:39:53.877Z,6.50
2023-04-26T22:42:23.127Z,6.50
2023-04-26T22:44:52.459Z,6.50
2023-04-26T22:47:23.226Z,6.50
2023-04-26T22:49:52.637Z,6.50
2023-04-26T22:52:30.902Z,6.50
2023-04-26T22:55:02.923Z,6.40
2023-04-26T22:57:32.457Z,6.40
2023-04-26T23:00:01.729Z,6.40
2023-04-26T23:02:31.133Z,6.40
2023-04-26T23:05:00.417Z,6.40
2023-04-26T23:07:29.988Z,6.40
2023-04-26T23:09:59.518Z,6.40
2023-04-26T23:12:31.479Z,6.40
2023-04-26T23:15:01.080Z,6.40
2023-04-26T23:17:30.462Z,6.40
2023-04-26T23:20:00.363Z,6.40
2023-04-26T23:22:29.754Z,6.30
2023-04-26T23:24:59.223Z,6.40
2023-04-26T23:27:29.993Z,6.20
2023-04-26T23:30:00.174Z,6.20
2023-04-26T23:32:29.931Z,6.20
2023-04-26T23:34:59.334Z,6.20
2023-04-26T23:37:28.557Z,6.30
2023-04-26T23:39:57.724Z,6.20
2023-04-26T23:42:27.167Z,6.30
2023-04-26T23:44:58.131Z,6.20
2023-04-26T23:47:27.656Z,6.20
2023-04-26T23:49:56.921Z,6.10
2023-04-26T23:52:26.353Z,6.10
2023-04-26T23:54:55.587Z,6.10
2023-04-26T23:57:24.804Z,6.10
2023-04-26T23:59:54.043Z,6.10
